Weather at Comanche Landing Airport

Public forecast

Using degrees Fahrenheit for public forecast. Weather courtesy of forecast.io.

Closest aviation weather report (METAR) to Comanche Landing Airport

Closest report is Valdosta Regional Airport, 2.9 nm (5.4 km) W. Retrieved 2020/10/21 05:53 UTC (58 minutes ago):

KVLD 210553Z AUTO 07006KT 10SM OVC007 23/21 A3009 RMK AO2 SLP193 T02280206 10233 20228 58007 TSNO

Closest aviation forecast (TAF) to Comanche Landing Airport

Closest forecast is Valdosta Regional Airport, 2.9 nm (5.4 km) W. Retrieved 2020/10/21 06:42 UTC (9 minutes ago):

TAF KVLD 210539Z 2106/2206 10004KT P6SM BKN009 FM211700 06007KT P6SM VCSH BKN040 FM220000 06005KT P6SM BKN250